LPE2138 SPRU-SPJC
Flight info
| Callsign | LPE2138 |
|---|---|
| Flight time | 0h 52m |
| Altitude | 35000 |
| Route | ESMI1A BTE UV1 ATATU ATATU4 |
| Aircraft | A319/M-SDE3FGHIRWY/LB1 |
Departure
| Time | 2026-05-08 02:52 |
|---|---|
| Airport | Capitán FAP Carlos Martínez de Pinillos International Airport (SPRU) |
Arrival
| Time | 2026-05-08 03:45 |
|---|---|
| Airport | Jorge Chávez International Airport (SPJC) |
| Time | Latitude | Longitude | Altitude | Speed | Heading |
|---|---|---|---|---|---|
| 2026-05-08 02:30 | -8.08542 | -79.10836 | 92 ft | 0 kts | 108° |
| 2026-05-08 02:38 | -8.08541 | -79.10841 | 93 ft | 2 kts | 106° |
| 2026-05-08 02:38 | -8.08536 | -79.10860 | 91 ft | 3 kts | 91° |
| 2026-05-08 02:38 | -8.08538 | -79.10879 | 91 ft | 3 kts | 62° |
| 2026-05-08 02:38 | -8.08549 | -79.10892 | 92 ft | 2 kts | 22° |
| 2026-05-08 02:39 | -8.08556 | -79.10895 | 91 ft | 1 kts | 19° |
| 2026-05-08 02:43 | -8.08557 | -79.10895 | 91 ft | 0 kts | 19° |
| 2026-05-08 02:45 | -8.08555 | -79.10894 | 91 ft | 1 kts | 19° |
| 2026-05-08 02:45 | -8.08538 | -79.10888 | 91 ft | 3 kts | 19° |
| 2026-05-08 02:46 | -8.08513 | -79.10880 | 92 ft | 4 kts | 19° |
| 2026-05-08 02:46 | -8.08486 | -79.10888 | 93 ft | 5 kts | 310° |
| 2026-05-08 02:46 | -8.08471 | -79.10930 | 91 ft | 6 kts | 289° |
| 2026-05-08 02:46 | -8.08440 | -79.10948 | 94 ft | 5 kts | 355° |
| 2026-05-08 02:47 | -8.08408 | -79.10940 | 95 ft | 5 kts | 17° |
| 2026-05-08 02:47 | -8.08344 | -79.10918 | 95 ft | 15 kts | 17° |
| 2026-05-08 02:47 | -8.08220 | -79.10879 | 100 ft | 24 kts | 17° |
| 2026-05-08 02:47 | -8.08060 | -79.10830 | 104 ft | 24 kts | 17° |
| 2026-05-08 02:48 | -8.07897 | -79.10779 | 109 ft | 24 kts | 17° |
| 2026-05-08 02:48 | -8.07740 | -79.10730 | 114 ft | 23 kts | 17° |
| 2026-05-08 02:48 | -8.07587 | -79.10682 | 118 ft | 23 kts | 17° |
| 2026-05-08 02:48 | -8.07435 | -79.10634 | 120 ft | 22 kts | 17° |
| 2026-05-08 02:49 | -8.07288 | -79.10588 | 125 ft | 22 kts | 17° |
| 2026-05-08 02:49 | -8.07151 | -79.10546 | 131 ft | 19 kts | 17° |
| 2026-05-08 02:49 | -8.07041 | -79.10481 | 136 ft | 18 kts | 44° |
| 2026-05-08 02:49 | -8.06941 | -79.10413 | 140 ft | 17 kts | 16° |
| 2026-05-08 02:50 | -8.06916 | -79.10470 | 139 ft | 13 kts | 208° |
| 2026-05-08 02:50 | -8.06938 | -79.10479 | 138 ft | 0 kts | 196° |
| 2026-05-08 02:51 | -8.07010 | -79.10500 | 137 ft | 44 kts | 197° |
| 2026-05-08 02:52 | -8.07604 | -79.10686 | 118 ft | 132 kts | 197° |
| 2026-05-08 02:52 | -8.08692 | -79.11029 | 329 ft | 176 kts | 197° |
| 2026-05-08 02:52 | -8.09851 | -79.11402 | 1188 ft | 175 kts | 195° |
| 2026-05-08 02:52 | -8.11064 | -79.11347 | 1576 ft | 190 kts | 156° |
| 2026-05-08 02:53 | -8.12263 | -79.10607 | 1807 ft | 215 kts | 148° |
| 2026-05-08 02:53 | -8.13619 | -79.09781 | 2139 ft | 240 kts | 149° |
| 2026-05-08 02:53 | -8.15120 | -79.08903 | 2789 ft | 256 kts | 150° |
| 2026-05-08 02:53 | -8.16688 | -79.08001 | 3652 ft | 262 kts | 150° |
| 2026-05-08 02:54 | -8.18297 | -79.07082 | 4509 ft | 269 kts | 150° |
| 2026-05-08 02:54 | -8.19945 | -79.06147 | 5361 ft | 273 kts | 150° |
| 2026-05-08 02:54 | -8.21595 | -79.05210 | 6274 ft | 274 kts | 150° |
| 2026-05-08 02:54 | -8.23277 | -79.04255 | 6979 ft | 280 kts | 150° |
| 2026-05-08 02:55 | -8.24984 | -79.03283 | 7740 ft | 283 kts | 150° |
| 2026-05-08 02:55 | -8.28452 | -79.01290 | 9258 ft | 290 kts | 150° |
| 2026-05-08 02:55 | -8.30219 | -79.00271 | 9979 ft | 294 kts | 150° |
| 2026-05-08 02:56 | -8.32046 | -78.99217 | 10305 ft | 313 kts | 150° |
| 2026-05-08 02:56 | -8.34002 | -78.98093 | 10564 ft | 331 kts | 150° |
| 2026-05-08 02:56 | -8.35999 | -78.96947 | 11097 ft | 337 kts | 150° |
| 2026-05-08 02:56 | -8.38052 | -78.95768 | 11696 ft | 341 kts | 150° |
| 2026-05-08 02:57 | -8.40128 | -78.94577 | 12305 ft | 345 kts | 149° |
| 2026-05-08 02:57 | -8.42222 | -78.93376 | 12932 ft | 348 kts | 149° |
| 2026-05-08 02:57 | -8.44337 | -78.92160 | 13547 ft | 351 kts | 149° |
| 2026-05-08 02:57 | -8.46474 | -78.90930 | 14100 ft | 354 kts | 149° |
| 2026-05-08 02:58 | -8.47896 | -78.90110 | 14457 ft | 356 kts | 149° |
| 2026-05-08 02:58 | -8.50079 | -78.88849 | 14988 ft | 358 kts | 149° |
| 2026-05-08 02:58 | -8.52221 | -78.87615 | 15511 ft | 360 kts | 149° |
| 2026-05-08 02:58 | -8.54404 | -78.86358 | 16043 ft | 362 kts | 149° |
| 2026-05-08 02:59 | -8.56601 | -78.85095 | 16549 ft | 365 kts | 149° |
| 2026-05-08 02:59 | -8.58820 | -78.83822 | 17041 ft | 367 kts | 149° |
| 2026-05-08 02:59 | -8.61046 | -78.82542 | 17566 ft | 369 kts | 149° |
| 2026-05-08 02:59 | -8.63288 | -78.81249 | 18063 ft | 372 kts | 149° |
| 2026-05-08 03:00 | -8.65542 | -78.79950 | 18513 ft | 374 kts | 149° |
| 2026-05-08 03:00 | -8.67809 | -78.78644 | 18929 ft | 376 kts | 149° |
| 2026-05-08 03:00 | -8.70089 | -78.77329 | 19344 ft | 379 kts | 149° |
| 2026-05-08 03:00 | -8.72388 | -78.76001 | 19767 ft | 382 kts | 149° |
| 2026-05-08 03:01 | -8.74700 | -78.74666 | 20187 ft | 384 kts | 149° |
| 2026-05-08 03:01 | -8.77033 | -78.73320 | 20611 ft | 387 kts | 149° |
| 2026-05-08 03:01 | -8.79383 | -78.71965 | 21027 ft | 390 kts | 149° |
| 2026-05-08 03:01 | -8.81747 | -78.70605 | 21438 ft | 392 kts | 149° |
| 2026-05-08 03:02 | -8.84105 | -78.69261 | 21842 ft | 395 kts | 150° |
| 2026-05-08 03:02 | -8.86519 | -78.67909 | 22259 ft | 398 kts | 150° |
| 2026-05-08 03:02 | -8.88956 | -78.66557 | 22687 ft | 400 kts | 150° |
| 2026-05-08 03:02 | -8.91407 | -78.65204 | 23102 ft | 403 kts | 150° |
| 2026-05-08 03:03 | -8.93875 | -78.63841 | 23498 ft | 406 kts | 150° |
| 2026-05-08 03:03 | -8.96356 | -78.62462 | 23834 ft | 408 kts | 150° |
| 2026-05-08 03:03 | -8.98849 | -78.61069 | 24162 ft | 411 kts | 150° |
| 2026-05-08 03:03 | -9.01359 | -78.59665 | 24489 ft | 413 kts | 151° |
| 2026-05-08 03:04 | -9.03880 | -78.58254 | 24819 ft | 415 kts | 151° |
| 2026-05-08 03:04 | -9.06416 | -78.56838 | 25142 ft | 418 kts | 151° |
| 2026-05-08 03:04 | -9.08967 | -78.55415 | 25462 ft | 420 kts | 152° |
| 2026-05-08 03:04 | -9.11534 | -78.53985 | 25781 ft | 422 kts | 152° |
| 2026-05-08 03:05 | -9.14120 | -78.52544 | 26094 ft | 425 kts | 152° |
| 2026-05-08 03:05 | -9.16732 | -78.51136 | 26405 ft | 427 kts | 154° |
| 2026-05-08 03:05 | -9.19399 | -78.49799 | 26712 ft | 429 kts | 155° |
| 2026-05-08 03:05 | -9.22107 | -78.48509 | 27013 ft | 431 kts | 156° |
| 2026-05-08 03:06 | -9.24843 | -78.47230 | 27327 ft | 433 kts | 156° |
| 2026-05-08 03:06 | -9.27585 | -78.45941 | 27630 ft | 436 kts | 156° |
| 2026-05-08 03:06 | -9.30332 | -78.44630 | 27933 ft | 438 kts | 156° |
| 2026-05-08 03:06 | -9.33090 | -78.43301 | 28243 ft | 440 kts | 156° |
| 2026-05-08 03:07 | -9.35862 | -78.41957 | 28548 ft | 442 kts | 156° |
| 2026-05-08 03:07 | -9.38641 | -78.40604 | 28845 ft | 445 kts | 156° |
| 2026-05-08 03:07 | -9.41434 | -78.39239 | 29147 ft | 447 kts | 156° |
| 2026-05-08 03:07 | -9.44243 | -78.37865 | 29443 ft | 449 kts | 156° |
| 2026-05-08 03:08 | -9.47061 | -78.36488 | 29740 ft | 451 kts | 157° |
| 2026-05-08 03:08 | -9.49899 | -78.35105 | 30022 ft | 453 kts | 157° |
| 2026-05-08 03:08 | -9.52747 | -78.33717 | 30272 ft | 455 kts | 157° |
| 2026-05-08 03:08 | -9.55570 | -78.32342 | 30526 ft | 457 kts | 157° |
| 2026-05-08 03:09 | -9.58440 | -78.30946 | 30794 ft | 459 kts | 158° |
| 2026-05-08 03:09 | -9.61322 | -78.29547 | 31056 ft | 460 kts | 158° |
| 2026-05-08 03:09 | -9.64214 | -78.28141 | 31311 ft | 461 kts | 158° |
| 2026-05-08 03:09 | -9.67115 | -78.26729 | 31548 ft | 463 kts | 158° |
| 2026-05-08 03:10 | -9.70017 | -78.25315 | 31914 ft | 462 kts | 158° |
| 2026-05-08 03:10 | -9.72906 | -78.23903 | 32300 ft | 461 kts | 158° |
| 2026-05-08 03:10 | -9.75792 | -78.22492 | 32682 ft | 459 kts | 158° |
| 2026-05-08 03:10 | -9.78666 | -78.21089 | 33064 ft | 458 kts | 159° |
| 2026-05-08 03:11 | -9.81532 | -78.19691 | 33451 ft | 457 kts | 159° |
| 2026-05-08 03:11 | -9.84393 | -78.18299 | 33831 ft | 456 kts | 159° |
| 2026-05-08 03:11 | -9.87253 | -78.16906 | 34180 ft | 455 kts | 159° |
| 2026-05-08 03:11 | -9.90104 | -78.15516 | 34466 ft | 455 kts | 159° |
| 2026-05-08 03:12 | -9.92960 | -78.14124 | 34724 ft | 456 kts | 159° |
| 2026-05-08 03:12 | -9.95785 | -78.12749 | 34915 ft | 457 kts | 159° |
| 2026-05-08 03:12 | -9.98678 | -78.11337 | 34973 ft | 453 kts | 159° |
| 2026-05-08 03:13 | -10.04308 | -78.08582 | 34987 ft | 452 kts | 159° |
| 2026-05-08 03:13 | -10.10066 | -78.05769 | 34827 ft | 459 kts | 159° |
| 2026-05-08 03:13 | -10.12925 | -78.04373 | 34153 ft | 464 kts | 159° |
| 2026-05-08 03:14 | -10.15828 | -78.02955 | 33625 ft | 462 kts | 159° |
| 2026-05-08 03:14 | -10.18715 | -78.01544 | 33131 ft | 458 kts | 158° |
| 2026-05-08 03:14 | -10.21565 | -78.00149 | 32439 ft | 452 kts | 158° |
| 2026-05-08 03:14 | -10.24382 | -77.98766 | 31654 ft | 447 kts | 158° |
| 2026-05-08 03:15 | -10.27167 | -77.97403 | 30962 ft | 440 kts | 158° |
| 2026-05-08 03:15 | -10.29884 | -77.96073 | 30537 ft | 427 kts | 158° |
| 2026-05-08 03:15 | -10.32528 | -77.94778 | 30127 ft | 416 kts | 157° |
| 2026-05-08 03:15 | -10.35099 | -77.93523 | 29677 ft | 405 kts | 157° |
| 2026-05-08 03:16 | -10.37606 | -77.92306 | 29285 ft | 393 kts | 157° |
| 2026-05-08 03:16 | -10.40062 | -77.91116 | 28698 ft | 389 kts | 156° |
| 2026-05-08 03:16 | -10.42490 | -77.89932 | 28098 ft | 384 kts | 156° |
| 2026-05-08 03:16 | -10.44893 | -77.88758 | 27507 ft | 380 kts | 156° |
| 2026-05-08 03:17 | -10.47246 | -77.87610 | 27280 ft | 370 kts | 156° |
| 2026-05-08 03:17 | -10.49537 | -77.86492 | 27184 ft | 360 kts | 156° |
| 2026-05-08 03:17 | -10.51790 | -77.85391 | 27090 ft | 360 kts | 156° |
| 2026-05-08 03:17 | -10.54043 | -77.84290 | 26770 ft | 359 kts | 155° |
| 2026-05-08 03:18 | -10.56292 | -77.83187 | 26408 ft | 357 kts | 155° |
| 2026-05-08 03:18 | -10.58523 | -77.82092 | 26063 ft | 355 kts | 155° |
| 2026-05-08 03:18 | -10.60716 | -77.81017 | 25717 ft | 353 kts | 155° |
| 2026-05-08 03:18 | -10.62926 | -77.79936 | 25339 ft | 352 kts | 155° |
| 2026-05-08 03:19 | -10.65131 | -77.78860 | 24980 ft | 350 kts | 155° |
| 2026-05-08 03:19 | -10.67326 | -77.77791 | 24597 ft | 350 kts | 154° |
| 2026-05-08 03:19 | -10.69514 | -77.76722 | 24218 ft | 349 kts | 154° |
| 2026-05-08 03:19 | -10.71695 | -77.75651 | 23839 ft | 348 kts | 154° |
| 2026-05-08 03:20 | -10.73874 | -77.74578 | 23439 ft | 347 kts | 154° |
| 2026-05-08 03:20 | -10.76048 | -77.73511 | 23023 ft | 345 kts | 154° |
| 2026-05-08 03:20 | -10.78203 | -77.72458 | 22637 ft | 343 kts | 153° |
| 2026-05-08 03:20 | -10.80348 | -77.71412 | 22250 ft | 340 kts | 153° |
| 2026-05-08 03:21 | -10.82471 | -77.70373 | 21875 ft | 338 kts | 153° |
| 2026-05-08 03:21 | -10.84587 | -77.69336 | 21498 ft | 336 kts | 153° |
| 2026-05-08 03:21 | -10.86760 | -77.68436 | 21152 ft | 343 kts | 165° |
| 2026-05-08 03:21 | -10.89141 | -77.68048 | 20721 ft | 353 kts | 179° |
| 2026-05-08 03:22 | -10.91504 | -77.68623 | 20677 ft | 352 kts | 205° |
| 2026-05-08 03:22 | -10.93488 | -77.70106 | 20946 ft | 360 kts | 225° |
| 2026-05-08 03:22 | -10.94927 | -77.72214 | 20973 ft | 367 kts | 244° |
| 2026-05-08 03:22 | -10.95584 | -77.74665 | 20662 ft | 365 kts | 266° |
| 2026-05-08 03:23 | -10.95342 | -77.77210 | 20310 ft | 361 kts | 288° |
| 2026-05-08 03:23 | -10.94232 | -77.79476 | 19884 ft | 358 kts | 310° |
| 2026-05-08 03:23 | -10.92405 | -77.81154 | 19478 ft | 352 kts | 332° |
| 2026-05-08 03:23 | -10.90158 | -77.82079 | 19095 ft | 348 kts | 346° |
| 2026-05-08 03:24 | -10.87836 | -77.82757 | 18702 ft | 346 kts | 350° |
| 2026-05-08 03:24 | -10.85479 | -77.82877 | 18342 ft | 337 kts | 12° |
| 2026-05-08 03:24 | -10.83299 | -77.82111 | 18014 ft | 330 kts | 32° |
| 2026-05-08 03:24 | -10.81527 | -77.80657 | 17765 ft | 326 kts | 52° |
| 2026-05-08 03:25 | -10.80351 | -77.78710 | 17510 ft | 323 kts | 70° |
| 2026-05-08 03:25 | -10.79892 | -77.76489 | 17261 ft | 322 kts | 89° |
| 2026-05-08 03:25 | -10.80198 | -77.74248 | 17016 ft | 320 kts | 108° |
| 2026-05-08 03:25 | -10.81211 | -77.72249 | 16762 ft | 320 kts | 127° |
| 2026-05-08 03:26 | -10.82822 | -77.70693 | 16521 ft | 321 kts | 145° |
| 2026-05-08 03:26 | -10.84776 | -77.69643 | 16272 ft | 323 kts | 153° |
| 2026-05-08 03:26 | -10.86797 | -77.68638 | 16045 ft | 323 kts | 153° |
| 2026-05-08 03:26 | -10.88814 | -77.67635 | 15808 ft | 323 kts | 153° |
| 2026-05-08 03:27 | -10.90826 | -77.66630 | 15572 ft | 321 kts | 153° |
| 2026-05-08 03:27 | -10.92821 | -77.65631 | 15344 ft | 318 kts | 152° |
| 2026-05-08 03:27 | -10.94801 | -77.64638 | 15110 ft | 315 kts | 152° |
| 2026-05-08 03:27 | -10.96765 | -77.63655 | 14880 ft | 315 kts | 153° |
| 2026-05-08 03:28 | -10.98726 | -77.62668 | 14652 ft | 314 kts | 153° |
| 2026-05-08 03:28 | -11.00686 | -77.61681 | 14426 ft | 314 kts | 153° |
| 2026-05-08 03:28 | -11.02640 | -77.60697 | 14203 ft | 311 kts | 153° |
| 2026-05-08 03:28 | -11.04569 | -77.59730 | 13977 ft | 309 kts | 153° |
| 2026-05-08 03:29 | -11.06493 | -77.58768 | 13742 ft | 308 kts | 153° |
| 2026-05-08 03:29 | -11.08422 | -77.57803 | 13488 ft | 310 kts | 153° |
| 2026-05-08 03:29 | -11.10330 | -77.56849 | 13237 ft | 309 kts | 153° |
| 2026-05-08 03:29 | -11.12260 | -77.55883 | 12993 ft | 308 kts | 153° |
| 2026-05-08 03:30 | -11.16079 | -77.53965 | 12502 ft | 305 kts | 153° |
| 2026-05-08 03:30 | -11.19881 | -77.52051 | 12020 ft | 303 kts | 153° |
| 2026-05-08 03:31 | -11.23654 | -77.50159 | 11548 ft | 301 kts | 153° |
| 2026-05-08 03:31 | -11.27415 | -77.48328 | 11074 ft | 299 kts | 155° |
| 2026-05-08 03:32 | -11.29309 | -77.47440 | 10848 ft | 299 kts | 155° |
| 2026-05-08 03:32 | -11.31201 | -77.46559 | 10615 ft | 299 kts | 155° |
| 2026-05-08 03:32 | -11.33090 | -77.45678 | 10387 ft | 298 kts | 155° |
| 2026-05-08 03:32 | -11.34974 | -77.44800 | 10154 ft | 297 kts | 155° |
| 2026-05-08 03:33 | -11.36853 | -77.43924 | 9942 ft | 296 kts | 155° |
| 2026-05-08 03:33 | -11.38725 | -77.43045 | 9827 ft | 296 kts | 155° |
| 2026-05-08 03:33 | -11.40595 | -77.42160 | 9702 ft | 296 kts | 155° |
| 2026-05-08 03:33 | -11.42461 | -77.41281 | 9576 ft | 295 kts | 155° |
| 2026-05-08 03:34 | -11.44328 | -77.40402 | 9453 ft | 295 kts | 155° |
| 2026-05-08 03:34 | -11.46186 | -77.39526 | 9328 ft | 294 kts | 155° |
| 2026-05-08 03:34 | -11.48017 | -77.38660 | 9199 ft | 293 kts | 155° |
| 2026-05-08 03:34 | -11.49866 | -77.37788 | 9072 ft | 293 kts | 155° |
| 2026-05-08 03:35 | -11.51711 | -77.36916 | 8959 ft | 292 kts | 155° |
| 2026-05-08 03:35 | -11.53553 | -77.36049 | 8831 ft | 291 kts | 155° |
| 2026-05-08 03:35 | -11.55374 | -77.35193 | 8591 ft | 286 kts | 155° |
| 2026-05-08 03:35 | -11.57171 | -77.34347 | 8263 ft | 284 kts | 155° |
| 2026-05-08 03:36 | -11.60403 | -77.32819 | 7913 ft | 271 kts | 155° |
| 2026-05-08 03:36 | -11.62086 | -77.32023 | 7753 ft | 263 kts | 155° |
| 2026-05-08 03:36 | -11.63739 | -77.31239 | 7582 ft | 264 kts | 155° |
| 2026-05-08 03:37 | -11.65415 | -77.30446 | 7273 ft | 263 kts | 155° |
| 2026-05-08 03:37 | -11.67067 | -77.29665 | 7010 ft | 261 kts | 155° |
| 2026-05-08 03:37 | -11.68685 | -77.28901 | 6761 ft | 258 kts | 156° |
| 2026-05-08 03:37 | -11.70310 | -77.28134 | 6479 ft | 257 kts | 155° |
| 2026-05-08 03:38 | -11.71951 | -77.27360 | 6177 ft | 256 kts | 155° |
| 2026-05-08 03:38 | -11.73534 | -77.26613 | 5728 ft | 253 kts | 155° |
| 2026-05-08 03:38 | -11.75129 | -77.25860 | 5213 ft | 253 kts | 155° |
| 2026-05-08 03:38 | -11.76742 | -77.25099 | 4553 ft | 258 kts | 155° |
| 2026-05-08 03:39 | -11.78359 | -77.24335 | 4187 ft | 251 kts | 155° |
| 2026-05-08 03:39 | -11.79895 | -77.23609 | 4036 ft | 236 kts | 155° |
| 2026-05-08 03:39 | -11.81351 | -77.22912 | 3831 ft | 229 kts | 154° |
| 2026-05-08 03:39 | -11.82771 | -77.22212 | 3569 ft | 224 kts | 154° |
| 2026-05-08 03:40 | -11.84158 | -77.21524 | 3330 ft | 219 kts | 154° |
| 2026-05-08 03:40 | -11.85512 | -77.20851 | 3091 ft | 214 kts | 153° |
| 2026-05-08 03:40 | -11.86835 | -77.20195 | 2860 ft | 209 kts | 154° |
| 2026-05-08 03:40 | -11.88092 | -77.19576 | 2760 ft | 191 kts | 154° |
| 2026-05-08 03:41 | -11.89240 | -77.19011 | 2575 ft | 176 kts | 154° |
| 2026-05-08 03:41 | -11.90306 | -77.18486 | 2370 ft | 165 kts | 154° |
| 2026-05-08 03:41 | -11.91302 | -77.17995 | 2168 ft | 153 kts | 154° |
| 2026-05-08 03:41 | -11.92231 | -77.17537 | 1984 ft | 148 kts | 154° |
| 2026-05-08 03:42 | -11.93147 | -77.17085 | 1795 ft | 145 kts | 155° |
| 2026-05-08 03:42 | -11.94050 | -77.16640 | 1610 ft | 143 kts | 155° |
| 2026-05-08 03:42 | -11.94946 | -77.16199 | 1417 ft | 143 kts | 155° |
| 2026-05-08 03:42 | -11.95837 | -77.15759 | 1226 ft | 142 kts | 155° |
| 2026-05-08 03:43 | -11.96728 | -77.15320 | 1035 ft | 142 kts | 155° |
| 2026-05-08 03:43 | -11.97619 | -77.14882 | 826 ft | 142 kts | 155° |
| 2026-05-08 03:43 | -11.98504 | -77.14444 | 640 ft | 141 kts | 154° |
| 2026-05-08 03:43 | -11.99376 | -77.14011 | 463 ft | 138 kts | 155° |
| 2026-05-08 03:44 | -12.00230 | -77.13587 | 281 ft | 136 kts | 155° |
| 2026-05-08 03:44 | -12.01072 | -77.13174 | 112 ft | 134 kts | 155° |
| 2026-05-08 03:44 | -12.01877 | -77.12778 | 44 ft | 118 kts | 154° |
| 2026-05-08 03:44 | -12.02490 | -77.12476 | 48 ft | 70 kts | 154° |
| 2026-05-08 03:45 | -12.02744 | -77.12275 | 55 ft | 29 kts | 124° |
| 2026-05-08 03:45 | -12.02861 | -77.12120 | 63 ft | 27 kts | 143° |
| 2026-05-08 03:45 | -12.02943 | -77.12036 | 71 ft | 15 kts | 73° |
| 2026-05-08 03:45 | -12.02861 | -77.12015 | 74 ft | 13 kts | 37° |
| 2026-05-08 03:46 | -12.02822 | -77.11948 | 78 ft | 9 kts | 43° |
| 2026-05-08 03:46 | -12.02773 | -77.11948 | 72 ft | 5 kts | 335° |
| 2026-05-08 03:46 | -12.02781 | -77.11980 | 76 ft | 5 kts | 244° |
| 2026-05-08 03:46 | -12.02789 | -77.11997 | 76 ft | 1 kts | 243° |
| 2026-05-08 03:47 | -12.02793 | -77.12004 | 75 ft | 0 kts | 244° |
| 2026-05-08 03:47 | -12.02793 | -77.12005 | 75 ft | 0 kts | 244° |
| 2026-05-08 03:49 | -12.02793 | -77.12004 | 75 ft | 0 kts | 244° |